Time;durP1;ratioP1;P1;durP2;ratioP2;P2;SDS_P1;SDS_P2;PMS_P1;PMS_P2;Temp;Humidity;BMP_temperature;BMP_pressure;BME280_temperature;BME280_humidity;BME280_pressure;Samples;Min_cycle;Max_cycle;Signal;HPM_P1;HPM_P2
2022/10/13 00:01:25;;;;;;;18.58;10.27;;;;;;;7.77;83.21;99299.97;5027648;28;20040;-81
2022/10/13 00:03:51;;;;;;;11.80;7.72;;;;;;;8.92;77.39;99310.50;5028796;28;20644;-82
2022/10/13 00:06:19;;;;;;;13.20;7.90;;;;;;;9.35;75.79;99302.31;5045650;28;20029;-82
2022/10/13 00:08:46;;;;;;;9.98;7.03;;;;;;;9.44;75.91;99312.38;5027417;28;20021;-82
2022/10/13 00:11:21;;;;;;;17.58;9.40;;;;;;;8.81;78.66;99296.13;5029868;28;20138;-82
2022/10/13 00:13:48;;;;;;;13.63;6.45;;;;;;;9.52;75.07;99289.94;5016222;28;20481;-82
2022/10/13 00:16:16;;;;;;;20.05;8.05;;;;;;;9.37;74.92;99303.66;5051037;28;20039;-82
2022/10/13 00:18:42;;;;;;;13.07;7.32;;;;;;;9.26;75.85;99299.13;5028200;28;20017;-82
2022/10/13 00:21:09;;;;;;;8.88;6.20;;;;;;;9.55;74.69;99294.78;5019061;28;20032;-82
2022/10/13 00:23:35;;;;;;;14.23;9.82;;;;;;;8.24;80.96;99299.25;5028702;28;20051;-82
2022/10/13 00:26:03;;;;;;;25.08;11.52;;;;;;;7.75;83.50;99270.16;5047682;28;20412;-82
2022/10/13 00:28:29;;;;;;;25.95;11.25;;;;;;;7.55;84.68;99278.31;5024885;28;20120;-82
2022/10/13 00:30:55;;;;;;;14.43;8.15;;;;;;;7.67;85.17;99291.69;5014628;28;20041;-83
2022/10/13 00:33:20;;;;;;;16.77;10.10;;;;;;;7.87;83.04;99287.81;5015908;28;20041;-82
2022/10/13 00:35:47;;;;;;;17.17;10.40;;;;;;;7.66;83.76;99298.03;5029948;28;20041;-82
2022/10/13 00:38:13;;;;;;;15.07;8.00;;;;;;;7.85;84.13;99299.69;5041740;28;20056;-82
2022/10/13 00:40:43;;;;;;;15.05;8.93;;;;;;;7.79;82.59;99282.78;5049927;28;20039;-82
2022/10/13 00:43:50;;;;;;;16.02;9.32;;;;;;;7.45;85.13;99288.59;5012652;28;21493;-82
2022/10/13 00:46:15;;;;;;;17.63;10.52;;;;;;;7.40;85.33;99289.25;5050047;28;20036;-81
2022/10/13 00:48:43;;;;;;;20.02;11.70;;;;;;;7.34;86.19;99295.44;5046235;28;20477;-82
2022/10/13 00:51:11;;;;;;;22.27;12.20;;;;;;;6.79;88.54;99281.13;5045914;28;20072;-81
2022/10/13 00:53:37;;;;;;;18.10;11.48;;;;;;;6.81;88.77;99276.41;5050572;28;20025;-81
2022/10/13 00:56:06;;;;;;;10.40;7.40;;;;;;;7.70;82.96;99262.84;5030480;28;20033;-82
2022/10/13 00:58:35;;;;;;;10.63;6.95;;;;;;;8.06;81.53;99262.84;5008070;28;20170;-82
2022/10/13 01:01:03;;;;;;;13.93;7.88;;;;;;;8.73;77.50;99266.34;5012197;28;20569;-82
2022/10/13 01:03:29;;;;;;;10.95;7.28;;;;;;;9.20;76.35;99289.41;5011238;28;20470;-81
2022/10/13 01:05:58;;;;;;;11.23;7.07;;;;;;;9.23;75.36;99272.16;5030694;28;20102;-82
2022/10/13 01:08:26;;;;;;;10.02;6.38;;;;;;;9.34;75.47;99279.34;5013669;28;20032;-82
2022/10/13 01:11:16;;;;;;;19.83;9.80;;;;;;;8.60;77.50;99277.19;5026542;28;20128;-82
2022/10/13 01:14:11;;;;;;;10.32;6.88;;;;;;;9.17;75.66;99279.22;5039337;28;20073;-81
2022/10/13 01:17:12;;;;;;;9.75;7.28;;;;;;;9.21;75.74;99269.72;5056607;28;20524;-82
2022/10/13 01:19:57;;;;;;;9.93;6.30;;;;;;;9.34;75.20;99276.69;5024063;28;20021;-82
2022/10/13 01:22:59;;;;;;;10.30;7.07;;;;;;;9.33;74.57;99283.03;5026588;28;20025;-82
2022/10/13 01:25:57;;;;;;;13.68;7.93;;;;;;;9.18;74.87;99277.34;5029850;28;20448;-82
2022/10/13 01:28:47;;;;;;;13.77;7.03;;;;;;;9.12;76.35;99272.94;5027248;28;20483;-82
2022/10/13 01:31:55;;;;;;;12.48;8.50;;;;;;;9.26;75.18;99269.03;5038485;28;20485;-82
2022/10/13 01:34:30;;;;;;;12.25;7.25;;;;;;;9.29;75.43;99265.91;5018243;28;20033;-82
2022/10/13 01:37:09;;;;;;;9.68;7.57;;;;;;;9.29;75.08;99256.06;5033146;28;20074;-82
2022/10/13 01:39:43;;;;;;;9.38;7.15;;;;;;;8.86;77.03;99266.16;5030389;28;20029;-82
2022/10/13 01:42:17;;;;;;;15.13;10.48;;;;;;;8.83;75.92;99264.75;5023530;28;20041;-82
2022/10/13 01:44:50;;;;;;;10.88;7.63;;;;;;;9.26;75.50;99261.84;5034599;28;20017;-82
2022/10/13 01:47:17;;;;;;;15.73;10.63;;;;;;;8.46;78.28;99271.22;5028298;28;20028;-82
2022/10/13 01:49:45;;;;;;;10.35;7.10;;;;;;;9.01;76.26;99240.75;5011237;28;20029;-82
2022/10/13 01:52:15;;;;;;;11.18;7.25;;;;;;;9.20;76.01;99253.97;5022803;28;20036;-81
2022/10/13 01:54:40;;;;;;;17.75;12.15;;;;;;;8.46;77.61;99231.31;5021169;28;20021;-82
2022/10/13 01:57:31;;;;;;;22.00;11.13;;;;;;;8.09;79.31;99229.72;5029910;28;20036;-82
2022/10/13 02:00:00;;;;;;;18.20;11.93;;;;;;;8.02;81.53;99252.88;5029543;28;20025;-82
2022/10/13 02:02:33;;;;;;;34.10;15.25;;;;;;;7.91;81.91;99227.03;5027335;28;20021;-81
2022/10/13 02:05:01;;;;;;;25.08;12.63;;;;;;;8.39;79.11;99251.06;5046883;28;20082;-81
2022/10/13 02:07:44;;;;;;;10.95;7.75;;;;;;;8.83;76.18;99238.16;5033356;28;20075;-82
2022/10/13 02:10:20;;;;;;;15.88;10.63;;;;;;;8.35;78.62;99234.72;5030384;28;20056;-82
2022/10/13 02:12:55;;;;;;;16.27;8.93;;;;;;;8.81;77.26;99245.56;5031288;28;20024;-81
2022/10/13 02:15:27;;;;;;;14.60;9.50;;;;;;;8.93;75.90;99241.06;5036791;28;20063;-82
2022/10/13 02:17:54;;;;;;;17.58;8.40;;;;;;;8.93;75.59;99222.41;5048524;28;20472;-82
2022/10/13 02:20:20;;;;;;;17.50;8.55;;;;;;;9.05;75.52;99231.25;5037446;28;20036;-82
2022/10/13 02:22:53;;;;;;;12.50;8.00;;;;;;;9.11;75.86;99234.84;5038402;28;20036;-83
2022/10/13 02:25:18;;;;;;;16.98;9.57;;;;;;;9.14;76.15;99236.25;5059472;28;20021;-83
2022/10/13 02:27:44;;;;;;;16.08;8.90;;;;;;;8.98;75.57;99203.91;5015226;28;20443;-82
2022/10/13 02:30:20;;;;;;;15.65;9.52;;;;;;;8.94;76.24;99240.03;5003451;28;20031;-82
2022/10/13 02:32:45;;;;;;;13.93;9.98;;;;;;;8.97;75.59;99220.13;5050994;28;20515;-82
2022/10/13 02:35:11;;;;;;;21.83;11.70;;;;;;;8.59;78.67;99219.66;5016250;28;20072;-82
2022/10/13 02:37:36;;;;;;;31.55;17.08;;;;;;;8.58;79.84;99234.03;5025774;28;20036;-82
2022/10/13 02:40:02;;;;;;;13.93;9.88;;;;;;;8.96;76.50;99232.63;5012979;28;20034;-82
2022/10/13 02:42:27;;;;;;;18.50;12.15;;;;;;;8.93;76.78;99226.97;5015248;28;20094;-82
2022/10/13 02:44:52;;;;;;;14.73;10.13;;;;;;;8.91;76.59;99213.06;5016028;28;20048;-82
2022/10/13 02:47:18;;;;;;;16.25;11.27;;;;;;;8.83;77.07;99210.72;4999650;28;20051;-82
2022/10/13 02:49:43;;;;;;;27.85;14.00;;;;;;;8.63;79.41;99208.34;5014846;28;20033;-82
2022/10/13 02:52:09;;;;;;;37.80;20.17;;;;;;;8.62;80.17;99214.72;5011846;28;20028;-82
2022/10/13 02:54:34;;;;;;;22.13;13.90;;;;;;;8.25;82.04;99197.19;5032338;28;20052;-82
2022/10/13 02:56:59;;;;;;;31.95;20.17;;;;;;;8.19;83.94;99203.44;5003991;28;20039;-82
2022/10/13 02:59:25;;;;;;;20.63;14.40;;;;;;;8.05;84.58;99215.25;5009541;28;20033;-82
2022/10/13 03:01:50;;;;;;;17.80;11.13;;;;;;;8.19;81.92;99203.44;5045591;28;20044;-82
2022/10/13 03:04:16;;;;;;;32.92;17.05;;;;;;;8.06;83.18;99199.06;4998101;28;20037;-82
2022/10/13 03:06:41;;;;;;;22.83;13.68;;;;;;;7.44;86.80;99200.19;5031838;28;20500;-82
2022/10/13 03:09:06;;;;;;;31.05;18.15;;;;;;;7.06;88.20;99180.09;4989149;28;20101;-82
2022/10/13 03:11:32;;;;;;;34.95;18.88;;;;;;;7.11;89.02;99209.47;5010212;28;20069;-82
2022/10/13 03:13:57;;;;;;;20.50;13.07;;;;;;;7.54;85.65;99205.78;5046737;28;20052;-82
2022/10/13 03:16:22;;;;;;;29.20;15.02;;;;;;;7.04;87.56;99171.56;5036446;28;20066;-81
2022/10/13 03:18:48;;;;;;;33.15;18.52;;;;;;;7.58;85.25;99204.31;5014938;28;20056;-82
2022/10/13 03:21:14;;;;;;;24.00;12.68;;;;;;;8.06;81.54;99200.94;5029689;28;20032;-82
2022/10/13 03:23:39;;;;;;;27.00;15.18;;;;;;;7.97;81.90;99210.25;5050217;28;20037;-82
2022/10/13 03:26:05;;;;;;;27.55;16.58;;;;;;;8.17;80.10;99206.28;5052570;28;20485;-83
2022/10/13 03:28:30;;;;;;;19.65;12.00;;;;;;;8.09;80.19;99190.66;5023876;28;20047;-83
2022/10/13 03:31:05;;;;;;;17.63;11.93;;;;;;;8.50;78.53;99210.38;5030491;28;20389;-82
2022/10/13 03:33:30;;;;;;;16.15;11.38;;;;;;;8.76;77.09;99200.16;5047364;28;20040;-83
2022/10/13 03:36:00;;;;;;;25.98;15.00;;;;;;;8.19;79.84;99209.53;5029508;28;20021;-81
2022/10/13 03:38:30;;;;;;;20.80;11.00;;;;;;;8.51;79.35;99215.50;5052132;28;20546;-82
2022/10/13 03:40:55;;;;;;;19.65;11.38;;;;;;;8.16;80.45;99211.84;5029062;28;20396;-82
2022/10/13 03:43:21;;;;;;;19.83;11.52;;;;;;;8.55;78.04;99194.56;5029706;28;20029;-82
2022/10/13 03:46:00;;;;;;;25.25;16.83;;;;;;;7.80;83.08;99217.97;5049270;28;20155;-81
2022/10/13 03:48:27;;;;;;;31.58;19.08;;;;;;;7.84;83.41;99207.72;5047071;28;20051;-83
2022/10/13 03:50:52;;;;;;;29.23;17.70;;;;;;;7.49;84.01;99207.50;5027994;28;20056;-82
2022/10/13 03:53:18;;;;;;;46.17;19.23;;;;;;;7.45;86.26;99212.41;5010473;28;20116;-82
2022/10/13 03:55:49;;;;;;;19.55;12.32;;;;;;;7.59;85.32;99197.16;5039279;28;20036;-81
2022/10/13 03:58:14;;;;;;;19.33;14.10;;;;;;;8.10;81.66;99210.06;5045950;28;20025;-82
2022/10/13 04:00:39;;;;;;;22.77;13.25;;;;;;;7.95;83.15;99209.66;4997631;28;20020;-82
2022/10/13 04:03:05;;;;;;;34.63;17.95;;;;;;;7.54;84.59;99189.84;5036902;28;20121;-78
2022/10/13 04:05:33;;;;;;;30.77;16.73;;;;;;;8.13;80.14;99180.38;5024642;28;20107;-81
2022/10/13 04:07:58;;;;;;;28.08;17.23;;;;;;;7.40;85.74;99193.66;5025304;28;20042;-81
2022/10/13 04:10:23;;;;;;;17.58;11.48;;;;;;;8.61;79.16;99212.28;5011767;28;20025;-81
2022/10/13 04:12:49;;;;;;;18.73;11.85;;;;;;;8.94;76.76;99210.75;5014917;28;20051;-81
2022/10/13 04:15:14;;;;;;;19.63;11.63;;;;;;;9.02;76.72;99210.41;4994947;28;20048;-81
2022/10/13 04:17:39;;;;;;;35.60;20.92;;;;;;;8.18;81.21;99210.59;5027538;28;20381;-81
2022/10/13 04:20:06;;;;;;;34.28;18.80;;;;;;;8.34;80.08;99203.88;5041261;28;20137;-81
2022/10/13 04:22:31;;;;;;;32.63;20.30;;;;;;;7.87;83.00;99209.94;5026160;28;20029;-81
2022/10/13 04:24:56;;;;;;;34.33;21.30;;;;;;;7.13;87.02;99194.13;5027986;28;20040;-81
2022/10/13 04:27:22;;;;;;;47.53;25.08;;;;;;;7.12;87.16;99185.34;5034043;28;20713;-81
2022/10/13 04:29:48;;;;;;;39.65;24.15;;;;;;;6.92;90.03;99216.56;5024967;28;20028;-81
2022/10/13 04:32:13;;;;;;;42.25;24.77;;;;;;;6.85;90.16;99215.81;5030201;28;20570;-80
2022/10/13 04:34:38;;;;;;;43.38;24.75;;;;;;;6.75;91.22;99210.16;5041374;28;20032;-80
2022/10/13 04:37:04;;;;;;;51.40;27.05;;;;;;;7.08;89.04;99197.44;5010013;28;20074;-81
2022/10/13 04:39:29;;;;;;;34.47;18.65;;;;;;;7.88;82.95;99196.44;5010721;28;20029;-79
2022/10/13 04:41:54;;;;;;;21.42;12.45;;;;;;;7.95;83.02;99204.34;5056751;28;20159;-79
2022/10/13 04:44:20;;;;;;;17.60;12.73;;;;;;;8.52;78.56;99214.44;5018545;28;20033;-79
2022/10/13 04:46:45;;;;;;;28.55;15.48;;;;;;;8.17;81.34;99202.81;5035184;28;20033;-79
2022/10/13 04:49:11;;;;;;;22.83;13.82;;;;;;;8.09;81.89;99203.13;5023587;28;20079;-79
2022/10/13 04:51:36;;;;;;;39.90;23.00;;;;;;;7.62;84.61;99201.22;5029033;28;20032;-79
2022/10/13 04:54:04;;;;;;;44.58;23.88;;;;;;;7.53;85.51;99209.47;5059766;28;20582;-78
2022/10/13 04:56:30;;;;;;;24.40;15.30;;;;;;;7.80;84.40;99202.03;5050579;28;20493;-79
2022/10/13 04:58:56;;;;;;;24.73;14.25;;;;;;;8.20;79.70;99186.41;5050056;28;20059;-79
2022/10/13 05:01:23;;;;;;;44.60;24.15;;;;;;;7.94;81.69;99192.88;5030010;28;20039;-79
2022/10/13 05:03:53;;;;;;;30.55;18.85;;;;;;;7.67;83.70;99182.75;5054845;28;20057;-79
2022/10/13 05:06:21;;;;;;;43.63;23.10;;;;;;;7.33;85.59;99192.94;5033960;28;20135;-79
2022/10/13 05:08:47;;;;;;;31.08;17.38;;;;;;;7.26;87.33;99191.38;5019759;28;20032;-79
2022/10/13 05:11:13;;;;;;;33.38;18.35;;;;;;;7.29;86.57;99186.44;5037367;28;20532;-79
2022/10/13 05:13:38;;;;;;;47.22;24.80;;;;;;;7.12;86.30;99174.75;5055372;28;20127;-79
2022/10/13 05:16:08;;;;;;;23.50;13.80;;;;;;;8.12;80.11;99165.47;5056666;28;20664;-79
2022/10/13 05:18:34;;;;;;;42.40;22.98;;;;;;;8.05;81.50;99181.50;5029322;28;20025;-79
2022/10/13 05:21:07;;;;;;;23.30;14.73;;;;;;;8.24;80.08;99184.94;5016536;28;20037;-79
2022/10/13 05:23:32;;;;;;;23.55;14.23;;;;;;;8.15;79.92;99162.34;5052869;28;20025;-79
2022/10/13 05:26:03;;;;;;;23.48;13.95;;;;;;;8.34;78.27;99179.94;5014007;28;20043;-79
2022/10/13 05:28:29;;;;;;;41.25;23.27;;;;;;;8.34;78.70;99179.13;5057501;28;20029;-79
2022/10/13 05:30:54;;;;;;;23.27;12.77;;;;;;;8.71;77.12;99165.47;5060072;28;20560;-79
2022/10/13 05:33:20;;;;;;;21.38;12.15;;;;;;;8.70;77.84;99187.78;5057258;28;20037;-79
2022/10/13 05:35:45;;;;;;;19.85;13.20;;;;;;;8.62;77.06;99161.50;5057005;28;20028;-79
2022/10/13 05:38:10;;;;;;;37.83;22.50;;;;;;;8.27;80.19;99185.34;5014859;28;20064;-79
2022/10/13 05:40:36;;;;;;;40.38;22.10;;;;;;;7.76;82.90;99173.47;5020012;28;20044;-79
2022/10/13 05:43:02;;;;;;;20.83;13.73;;;;;;;8.50;78.59;99176.63;5035001;28;20075;-80
2022/10/13 05:45:31;;;;;;;19.52;12.48;;;;;;;8.69;77.08;99164.84;5038675;28;20075;-79
2022/10/13 05:47:57;;;;;;;20.23;12.57;;;;;;;8.66;76.53;99165.34;5074602;28;20456;-79
2022/10/13 05:50:23;;;;;;;20.92;14.02;;;;;;;8.70;77.78;99178.97;5026883;28;20033;-79
2022/10/13 05:52:50;;;;;;;20.73;12.48;;;;;;;8.88;76.21;99177.06;5018862;28;20048;-79
2022/10/13 05:55:17;;;;;;;23.95;13.27;;;;;;;8.70;77.35;99171.00;5036445;28;20029;-79
2022/10/13 05:57:47;;;;;;;24.10;14.18;;;;;;;8.75;77.32;99174.63;5036345;28;20036;-79
2022/10/13 06:00:15;;;;;;;28.58;17.73;;;;;;;8.45;78.32;99139.25;5050463;28;20120;-79
2022/10/13 06:02:53;;;;;;;19.52;12.85;;;;;;;8.69;77.66;99150.75;5027529;28;20025;-80
2022/10/13 06:05:22;;;;;;;24.95;14.00;;;;;;;8.90;77.13;99161.69;5044782;28;20067;-79
2022/10/13 06:07:47;;;;;;;19.52;12.75;;;;;;;8.76;77.51;99162.91;5027389;28;20045;-79
2022/10/13 06:10:14;;;;;;;22.13;14.02;;;;;;;8.83;76.98;99165.47;5047380;28;20029;-79
2022/10/13 06:12:39;;;;;;;24.75;13.75;;;;;;;8.65;78.45;99157.59;5017162;28;20033;-79
2022/10/13 06:15:05;;;;;;;31.13;17.85;;;;;;;8.06;84.16;99147.75;5027498;28;20392;-80
2022/10/13 06:17:31;;;;;;;20.52;13.68;;;;;;;8.62;78.89;99136.75;5034194;28;20033;-79
2022/10/13 06:19:56;;;;;;;30.17;16.42;;;;;;;8.79;77.89;99146.50;5046416;28;20480;-80
2022/10/13 06:22:21;;;;;;;18.15;12.90;;;;;;;8.71;78.22;99138.84;5017699;28;20037;-79
2022/10/13 06:24:47;;;;;;;23.77;12.80;;;;;;;8.74;78.41;99142.88;5016882;28;20182;-79
2022/10/13 06:27:13;;;;;;;20.95;13.45;;;;;;;8.99;76.94;99151.50;5030984;28;20037;-79
2022/10/13 06:29:38;;;;;;;33.85;19.20;;;;;;;8.26;83.02;99135.03;5035394;28;20025;-79
2022/10/13 06:32:04;;;;;;;23.63;14.05;;;;;;;8.68;78.87;99154.44;5003064;28;20404;-79
2022/10/13 06:34:29;;;;;;;23.35;14.45;;;;;;;8.83;78.93;99149.50;5019133;28;20032;-79
2022/10/13 06:36:55;;;;;;;19.35;13.80;;;;;;;8.95;78.55;99151.13;5053579;28;20028;-80
2022/10/13 06:39:20;;;;;;;20.08;13.25;;;;;;;9.04;77.73;99147.09;5019355;28;20044;-79
2022/10/13 06:41:46;;;;;;;31.40;19.50;;;;;;;8.81;79.44;99146.25;5053676;28;20052;-79
2022/10/13 06:44:11;;;;;;;41.97;23.88;;;;;;;7.83;87.96;99142.31;5020146;28;20111;-79
2022/10/13 06:46:36;;;;;;;47.25;25.38;;;;;;;7.41;91.43;99130.75;5019426;28;20036;-79
2022/10/13 06:49:02;;;;;;;40.80;25.48;;;;;;;7.45;91.24;99130.09;5019362;28;20029;-79
2022/10/13 06:51:27;;;;;;;48.67;27.77;;;;;;;7.62;92.04;99153.41;5018921;28;20033;-79
2022/10/13 06:53:55;;;;;;;28.83;15.85;;;;;;;7.80;88.23;99143.56;5053839;28;20135;-79
2022/10/13 06:56:20;;;;;;;23.60;14.70;;;;;;;7.90;87.60;99151.84;5019605;28;20033;-79
2022/10/13 06:58:47;;;;;;;30.48;17.75;;;;;;;8.39;83.70;99163.31;5035651;28;20075;-79
2022/10/13 07:01:13;;;;;;;23.85;14.48;;;;;;;8.69;81.56;99164.84;5019256;28;20055;-80
2022/10/13 07:03:39;;;;;;;31.73;17.15;;;;;;;8.41;86.13;99158.56;5019115;28;20055;-79
2022/10/13 07:06:06;;;;;;;29.33;18.77;;;;;;;8.69;82.28;99167.50;5035602;28;20404;-79
2022/10/13 07:08:32;;;;;;;47.05;27.35;;;;;;;7.95;93.12;99146.66;5035099;28;20104;-79
2022/10/13 07:10:58;;;;;;;58.63;31.75;;;;;;;8.06;92.26;99145.09;5035678;28;20025;-79
2022/10/13 07:13:24;;;;;;;28.75;16.90;;;;;;;8.60;83.37;99152.94;5035219;28;20033;-79
2022/10/13 07:15:49;;;;;;;48.55;29.15;;;;;;;8.18;92.69;99160.06;5035459;28;20465;-79
2022/10/13 07:18:14;;;;;;;41.97;24.98;;;;;;;8.03;93.45;99159.66;5030521;28;20527;-79
2022/10/13 07:20:40;;;;;;;23.52;14.95;;;;;;;8.74;82.59;99165.00;5000645;28;20037;-79
2022/10/13 07:23:05;;;;;;;46.33;26.58;;;;;;;8.17;93.32;99165.59;5028313;28;20401;-79
2022/10/13 07:25:31;;;;;;;39.70;22.75;;;;;;;7.99;93.74;99157.66;5032891;28;20548;-79
2022/10/13 07:27:59;;;;;;;38.25;21.75;;;;;;;8.35;91.38;99176.22;5031978;28;20658;-79
2022/10/13 07:30:25;;;;;;;22.48;15.48;;;;;;;8.65;86.16;99178.88;5015170;28;20021;-79
2022/10/13 07:32:50;;;;;;;33.88;20.85;;;;;;;8.56;90.46;99177.56;5015146;28;20512;-79
2022/10/13 07:35:16;;;;;;;43.05;24.73;;;;;;;8.40;92.88;99155.09;5020571;28;20037;-79
2022/10/13 07:37:41;;;;;;;29.88;19.10;;;;;;;8.38;93.14;99149.19;5034766;28;20365;-79
2022/10/13 07:40:07;;;;;;;36.83;21.70;;;;;;;8.84;87.02;99173.25;5051527;28;20511;-79
2022/10/13 07:42:33;;;;;;;58.83;27.80;;;;;;;8.42;93.40;99154.84;5043950;28;20498;-79
2022/10/13 07:44:58;;;;;;;50.85;28.95;;;;;;;8.38;93.88;99167.81;5014658;28;20040;-79
2022/10/13 07:47:23;;;;;;;39.35;21.05;;;;;;;8.50;94.55;99167.81;4982195;28;20676;-79
2022/10/13 07:49:49;;;;;;;51.17;28.10;;;;;;;8.39;95.24;99177.38;4998635;28;20075;-79
2022/10/13 07:52:14;;;;;;;57.45;29.52;;;;;;;8.44;94.28;99179.38;5032627;28;20045;-79
2022/10/13 07:54:39;;;;;;;55.30;29.75;;;;;;;8.25;96.84;99170.63;5015013;28;20026;-79
2022/10/13 07:57:05;;;;;;;67.80;30.35;;;;;;;8.29;97.21;99171.81;4998061;28;20038;-79
2022/10/13 07:59:32;;;;;;;58.03;31.27;;;;;;;8.34;97.66;99173.78;5032541;28;20089;-79
2022/10/13 08:01:59;;;;;;;59.42;30.00;;;;;;;8.52;97.18;99177.19;5032387;28;20059;-79
2022/10/13 08:04:27;;;;;;;58.60;31.67;;;;;;;8.46;97.10;99161.34;5014403;28;20064;-79
2022/10/13 08:06:53;;;;;;;50.13;29.33;;;;;;;8.29;97.14;99137.25;5014439;28;20029;-79
2022/10/13 08:09:18;;;;;;;51.85;29.52;;;;;;;8.41;97.04;99154.03;5014373;28;20040;-79
2022/10/13 08:11:43;;;;;;;23.65;14.57;;;;;;;8.87;87.47;99164.78;5019466;28;20021;-79
2022/10/13 08:14:12;;;;;;;45.28;25.65;;;;;;;9.21;87.21;99143.75;5052150;28;20372;-79
2022/10/13 08:16:38;;;;;;;35.90;20.55;;;;;;;9.30;87.49;99156.50;5017816;28;20501;-79
2022/10/13 08:19:04;;;;;;;39.67;22.80;;;;;;;9.54;86.90;99155.41;5018225;28;20445;-79
2022/10/13 08:21:29;;;;;;;44.28;23.48;;;;;;;9.54;88.90;99152.75;5034341;28;20064;-79
2022/10/13 08:23:55;;;;;;;23.13;13.50;;;;;;;9.78;83.00;99150.84;5034078;28;20029;-79
2022/10/13 08:26:24;;;;;;;42.58;22.70;;;;;;;9.68;90.74;99146.13;5052134;28;20044;-79
2022/10/13 08:28:49;;;;;;;24.13;16.77;;;;;;;9.78;82.14;99127.66;5034012;28;20025;-79
2022/10/13 08:31:15;;;;;;;33.40;18.42;;;;;;;9.94;82.91;99144.75;5033952;28;20037;-80
2022/10/13 08:33:40;;;;;;;20.50;14.88;;;;;;;10.04;81.14;99158.31;5051574;28;20098;-79
2022/10/13 08:36:07;;;;;;;35.90;19.52;;;;;;;9.97;86.14;99143.47;5017491;28;20114;-79
2022/10/13 08:38:33;;;;;;;20.35;13.32;;;;;;;10.18;80.16;99121.50;5033564;28;20029;-79
2022/10/13 08:40:59;;;;;;;30.17;19.40;;;;;;;10.23;83.89;99132.28;5017639;28;20481;-79
2022/10/13 08:43:25;;;;;;;19.48;12.32;;;;;;;10.33;79.62;99129.81;5051553;28;20107;-79
2022/10/13 08:45:55;;;;;;;20.05;12.82;;;;;;;10.29;80.65;99137.47;5033556;28;20408;-79
2022/10/13 08:48:25;;;;;;;28.98;18.73;;;;;;;10.22;84.13;99126.13;5051454;28;20120;-79
2022/10/13 08:50:56;;;;;;;26.75;17.13;;;;;;;10.47;84.25;99142.59;5033582;28;20027;-79
2022/10/13 08:53:31;;;;;;;43.70;24.23;;;;;;;10.38;89.61;99129.88;5051571;28;20091;-79
2022/10/13 08:56:23;;;;;;;20.70;12.65;;;;;;;10.42;80.72;99129.16;5033890;28;20556;-79
2022/10/13 08:58:50;;;;;;;26.67;16.00;;;;;;;10.51;81.04;99141.06;5026350;28;20508;-79
2022/10/13 09:01:26;;;;;;;22.70;14.20;;;;;;;10.44;82.40;99137.72;5033585;28;20386;-79
2022/10/13 09:04:07;;;;;;;22.52;13.10;;;;;;;10.57;82.99;99150.00;5051823;28;20036;-79
2022/10/13 09:06:44;;;;;;;23.15;14.50;;;;;;;10.61;81.29;99144.97;5033322;28;20100;-79
2022/10/13 09:09:11;;;;;;;24.38;16.20;;;;;;;10.64;82.12;99152.50;5051370;28;20108;-79
2022/10/13 09:11:40;;;;;;;22.80;13.40;;;;;;;10.71;81.31;99137.94;5033306;28;20044;-79
2022/10/13 09:14:11;;;;;;;17.83;12.40;;;;;;;10.78;79.88;99146.59;5051376;28;20060;-79
2022/10/13 09:16:43;;;;;;;24.63;14.93;;;;;;;10.77;80.60;99138.84;5039406;28;20033;-79
2022/10/13 09:19:21;;;;;;;26.77;15.63;;;;;;;10.75;83.76;99141.72;5040216;28;20024;-79
2022/10/13 09:21:47;;;;;;;25.02;15.00;;;;;;;10.69;82.28;99110.69;5057928;28;20029;-79
2022/10/13 09:24:15;;;;;;;29.98;17.52;;;;;;;10.74;82.08;99096.59;5007095;28;20397;-79
2022/10/13 09:26:43;;;;;;;21.83;12.43;;;;;;;10.83;81.73;99105.81;5057645;28;20393;-79
2022/10/13 09:29:29;;;;;;;22.27;15.13;;;;;;;10.87;82.03;99107.78;5057704;28;20033;-79
2022/10/13 09:32:12;;;;;;;20.17;13.27;;;;;;;10.88;80.23;99081.84;5023161;28;20044;-79
2022/10/13 09:34:37;;;;;;;17.85;12.23;;;;;;;10.91;80.98;99070.69;5039934;28;20056;-79
2022/10/13 09:37:05;;;;;;;31.02;16.90;;;;;;;11.03;85.55;99074.88;5022627;28;20556;-79
2022/10/13 09:39:32;;;;;;;18.75;12.32;;;;;;;10.99;81.09;99099.66;5038943;28;20017;-79
2022/10/13 09:42:19;;;;;;;23.77;11.23;;;;;;;11.00;80.97;99128.81;5038917;28;20056;-79
2022/10/13 09:44:45;;;;;;;26.50;13.90;;;;;;;11.04;80.80;99115.75;5039460;28;20036;-79
2022/10/13 09:47:20;;;;;;;23.02;13.93;;;;;;;11.19;82.86;99121.31;5022177;28;20063;-79
2022/10/13 09:49:59;;;;;;;19.05;12.05;;;;;;;11.07;83.10;99094.69;5057666;28;20469;-79
2022/10/13 09:52:25;;;;;;;23.90;14.82;;;;;;;11.22;81.85;99112.81;5039640;28;20107;-79
2022/10/13 09:54:52;;;;;;;23.05;15.90;;;;;;;11.39;84.81;99129.63;5057766;28;20107;-79
2022/10/13 09:57:40;;;;;;;23.33;15.88;;;;;;;11.45;83.45;99107.25;5057558;28;20060;-79
2022/10/13 10:00:22;;;;;;;20.40;12.75;;;;;;;11.64;82.03;99123.81;5039837;28;20052;-79
2022/10/13 10:03:23;;;;;;;20.73;14.50;;;;;;;11.79;81.05;99127.53;5057411;28;20151;-79
2022/10/13 10:05:49;;;;;;;24.42;13.20;;;;;;;11.87;81.87;99135.09;5042911;28;20098;-79
2022/10/13 10:08:48;;;;;;;29.83;16.25;;;;;;;12.26;85.34;99114.38;5039162;28;20462;-79
2022/10/13 10:11:28;;;;;;;22.33;12.70;;;;;;;12.07;78.79;99098.94;5019568;28;20037;-79
2022/10/13 10:13:56;;;;;;;28.48;13.07;;;;;;;12.13;80.76;99100.59;5056741;28;20086;-79
2022/10/13 10:16:34;;;;;;;18.27;10.43;;;;;;;12.11;79.38;99086.66;5039705;28;20033;-79
2022/10/13 10:19:12;;;;;;;19.00;10.90;;;;;;;12.25;79.85;99085.19;5057329;28;20052;-79
2022/10/13 10:21:48;;;;;;;14.95;10.18;;;;;;;12.39;77.73;99097.09;5057369;28;20032;-79
2022/10/13 10:24:29;;;;;;;15.10;9.10;;;;;;;12.20;78.09;99096.66;5039442;28;20477;-79
2022/10/13 10:27:11;;;;;;;18.58;9.65;;;;;;;12.29;78.14;99110.41;5055405;28;20354;-79
2022/10/13 10:29:49;;;;;;;15.40;9.52;;;;;;;12.23;78.49;99088.13;5054158;28;20039;-79
2022/10/13 10:32:20;;;;;;;12.00;7.95;;;;;;;12.30;78.85;99093.25;5054100;28;20025;-79
2022/10/13 10:34:54;;;;;;;16.50;9.45;;;;;;;12.47;78.66;99099.34;5054243;28;20083;-79
2022/10/13 10:37:38;;;;;;;15.07;8.75;;;;;;;12.43;78.74;99099.00;5053571;28;20028;-79
2022/10/13 10:40:15;;;;;;;17.38;9.02;;;;;;;12.37;78.30;99093.88;5054023;28;20017;-79
2022/10/13 10:42:40;;;;;;;16.23;10.20;;;;;;;12.53;78.63;99093.78;5053884;28;20443;-79
2022/10/13 10:45:19;;;;;;;15.48;9.02;;;;;;;12.56;78.41;99079.84;5053504;28;20029;-79
2022/10/13 10:47:49;;;;;;;17.33;9.40;;;;;;;12.63;78.20;99080.47;5035861;28;21900;-79
2022/10/13 10:50:16;;;;;;;13.57;9.27;;;;;;;12.66;77.75;99066.56;5053906;28;20055;-79
2022/10/13 10:53:01;;;;;;;17.20;9.02;;;;;;;12.69;77.99;99060.69;5053795;28;20067;-79
2022/10/13 10:55:32;;;;;;;16.25;8.93;;;;;;;12.71;77.44;99057.75;5053678;28;20025;-79
2022/10/13 10:58:13;;;;;;;15.10;8.95;;;;;;;12.88;77.28;99058.41;5035443;28;20033;-79
2022/10/13 11:00:50;;;;;;;13.55;7.82;;;;;;;12.81;76.97;99055.16;5035635;28;20031;-79
2022/10/13 11:03:40;;;;;;;18.08;8.57;;;;;;;12.90;77.29;99055.47;5053591;28;20032;-79
2022/10/13 11:06:11;;;;;;;12.77;8.07;;;;;;;12.99;78.24;99061.97;5035538;28;20025;-79
2022/10/13 11:08:36;;;;;;;13.90;8.63;;;;;;;13.01;76.96;99054.47;5035119;28;20037;-79
2022/10/13 11:11:33;;;;;;;14.45;7.80;;;;;;;13.02;76.77;99046.16;5053430;28;20036;-79
2022/10/13 11:14:05;;;;;;;11.55;7.72;;;;;;;13.03;76.65;99042.44;5034618;28;20028;-79
2022/10/13 11:16:40;;;;;;;12.20;7.32;;;;;;;13.06;76.66;99027.75;5053231;28;20055;-79
2022/10/13 11:19:35;;;;;;;16.98;8.93;;;;;;;13.05;76.72;99037.66;5035295;28;20025;-79
2022/10/13 11:22:01;;;;;;;17.58;8.48;;;;;;;13.09;76.80;99035.25;5053147;28;20029;-79
2022/10/13 11:24:38;;;;;;;16.58;8.65;;;;;;;13.12;76.72;99032.88;5053277;28;20369;-79
2022/10/13 11:27:06;;;;;;;12.70;7.65;;;;;;;13.13;77.30;99021.06;5052646;28;20043;-79
2022/10/13 11:29:56;;;;;;;11.23;7.85;;;;;;;13.13;76.11;99026.44;5034928;28;20115;-79
2022/10/13 11:32:54;;;;;;;15.68;8.35;;;;;;;13.14;77.17;99025.38;5035060;28;20425;-79
2022/10/13 11:35:10;;;;;;;17.45;9.00;;;;;;;13.18;77.30;99022.97;5052402;28;20051;-79
2022/10/13 11:37:54;;;;;;;12.30;8.02;;;;;;;13.15;76.13;99026.97;5050694;28;20045;-79